Time;durP1;ratioP1;P1;durP2;ratioP2;P2;SDS_P1;SDS_P2;PMS_P1;PMS_P2;Temp;Humidity;BMP_temperature;BMP_pressure;BME280_temperature;BME280_humidity;BME280_pressure;Samples;Min_cycle;Max_cycle;Signal;HPM_P1;HPM_P2
2022/10/11 00:00:13;;;;;;;;;1.00;1.00;;;;;;;;5096660;27;45384;-73
2022/10/11 00:02:38;;;;;;;;;0.00;0.00;;;;;;;;5096170;27;46078;-73
2022/10/11 00:05:04;;;;;;;;;0.67;0.67;;;;;;;;5096444;27;45414;-73
2022/10/11 00:07:29;;;;;;;;;2.00;2.00;;;;;;;;5089125;27;45316;-73
2022/10/11 00:09:54;;;;;;;;;0.67;0.67;;;;;;;;5092233;27;45563;-73
2022/10/11 00:12:19;;;;;;;;;1.33;1.33;;;;;;;;5096420;27;46284;-73
2022/10/11 00:14:44;;;;;;;;;1.00;0.00;;;;;;;;5096326;27;45296;-73
2022/10/11 00:17:10;;;;;;;;;1.00;1.00;;;;;;;;5090263;27;45319;-73
2022/10/11 00:19:35;;;;;;;;;1.67;1.33;;;;;;;;5088423;27;45402;-73
2022/10/11 00:22:00;;;;;;;;;1.00;1.00;;;;;;;;5095968;27;46189;-73
2022/10/11 00:24:25;;;;;;;;;2.67;1.00;;;;;;;;5096025;27;45320;-73
2022/10/11 00:26:51;;;;;;;;;1.67;1.67;;;;;;;;5096565;27;45384;-73
2022/10/11 00:29:16;;;;;;;;;1.00;1.00;;;;;;;;5095950;27;45418;-73
2022/10/11 00:31:41;;;;;;;;;1.00;1.00;;;;;;;;5096096;27;46294;-73
2022/10/11 00:34:07;;;;;;;;;1.33;1.00;;;;;;;;5095787;27;45491;-73
2022/10/11 00:36:33;;;;;;;;;1.00;1.00;;;;;;;;5088309;27;45438;-73
2022/10/11 00:38:58;;;;;;;;;2.00;2.00;;;;;;;;5089620;27;45428;-72
2022/10/11 00:41:23;;;;;;;;;1.67;1.67;;;;;;;;5081112;27;45445;-73
2022/10/11 00:44:06;;;;;;;;;1.00;1.00;;;;;;;;5096070;27;45318;-73
2022/10/11 00:46:31;;;;;;;;;1.67;1.00;;;;;;;;5099103;27;45378;-73
2022/10/11 00:49:03;;;;;;;;;2.00;1.00;;;;;;;;5099647;27;45286;-73
2022/10/11 00:51:38;;;;;;;;;1.33;0.00;;;;;;;;5099265;27;45358;-73
2022/10/11 00:54:04;;;;;;;;;3.00;3.00;;;;;;;;5098900;27;45359;-73
2022/10/11 00:56:31;;;;;;;;;2.00;1.00;;;;;;;;5099340;27;45408;-73
2022/10/11 00:58:57;;;;;;;;;0.67;0.67;;;;;;;;5099581;27;45364;-73
2022/10/11 01:01:23;;;;;;;;;1.00;1.00;;;;;;;;5099125;27;46316;-73
2022/10/11 01:03:48;;;;;;;;;2.00;1.00;;;;;;;;5099177;27;45403;-73
2022/10/11 01:06:14;;;;;;;;;2.00;1.00;;;;;;;;5099392;27;45402;-73
2022/10/11 01:08:39;;;;;;;;;0.67;0.67;;;;;;;;5087888;27;45383;-73
2022/10/11 01:11:05;;;;;;;;;1.00;1.00;;;;;;;;5099043;27;46187;-73
2022/10/11 01:13:30;;;;;;;;;1.00;1.00;;;;;;;;5098988;27;45371;-73
2022/10/11 01:16:14;;;;;;;;;2.33;1.33;;;;;;;;5099417;27;45458;-72
2022/10/11 01:18:54;;;;;;;;;1.00;1.00;;;;;;;;5098965;27;45494;-73
2022/10/11 01:21:38;;;;;;;;;2.00;1.67;;;;;;;;5098701;27;46279;-73
2022/10/11 01:24:12;;;;;;;;;1.00;1.00;;;;;;;;5071998;27;45339;-73
2022/10/11 01:26:37;;;;;;;;;1.00;1.00;;;;;;;;5098950;27;45334;-73
2022/10/11 01:29:09;;;;;;;;;0.33;0.33;;;;;;;;5099052;27;45447;-73
2022/10/11 01:31:48;;;;;;;;;2.67;2.00;;;;;;;;5098837;27;46320;-73
2022/10/11 01:34:13;;;;;;;;;1.67;0.00;;;;;;;;5098495;27;45397;-73
2022/10/11 01:36:40;;;;;;;;;2.25;0.75;;;;;;;;5090064;27;45609;-73
2022/10/11 01:39:10;;;;;;;;;1.00;1.00;;;;;;;;5093072;27;45419;-73
2022/10/11 01:41:38;;;;;;;;;0.67;0.67;;;;;;;;5098692;27;46083;-73
2022/10/11 01:44:04;;;;;;;;;1.00;0.33;;;;;;;;5098581;27;45613;-73
2022/10/11 01:46:29;;;;;;;;;1.67;1.67;;;;;;;;5098918;27;45413;-73
2022/10/11 01:48:56;;;;;;;;;0.00;0.00;;;;;;;;5098823;27;45376;-73
2022/10/11 01:51:23;;;;;;;;;3.67;1.67;;;;;;;;5097941;27;46312;-73
2022/10/11 01:54:07;;;;;;;;;2.00;1.00;;;;;;;;5098476;27;45287;-73
2022/10/11 01:56:50;;;;;;;;;1.33;1.00;;;;;;;;5098427;27;45218;-73
2022/10/11 01:59:22;;;;;;;;;0.67;0.67;;;;;;;;5098435;27;45374;-73
2022/10/11 02:02:00;;;;;;;;;0.00;0.00;;;;;;;;5098223;27;45465;-73
2022/10/11 02:04:43;;;;;;;;;2.00;1.00;;;;;;;;5098361;27;45462;-73
2022/10/11 02:07:13;;;;;;;;;1.33;1.33;;;;;;;;5068324;27;45750;-73
2022/10/11 02:09:43;;;;;;;;;1.00;1.00;;;;;;;;5092403;27;45292;-74
2022/10/11 02:12:10;;;;;;;;;1.00;1.00;;;;;;;;5098027;27;46152;-73
2022/10/11 02:14:38;;;;;;;;;1.33;1.00;;;;;;;;5097906;27;45895;-73
2022/10/11 02:17:07;;;;;;;;;1.00;1.00;;;;;;;;5092822;27;45392;-73
2022/10/11 02:19:43;;;;;;;;;1.00;1.00;;;;;;;;5089711;27;45355;-73
2022/10/11 02:22:12;;;;;;;;;1.00;1.00;;;;;;;;5083142;27;46122;-72
2022/10/11 02:24:40;;;;;;;;;1.33;1.33;;;;;;;;5097882;27;45377;-73
2022/10/11 02:27:06;;;;;;;;;0.00;0.00;;;;;;;;5098100;27;45519;-73
2022/10/11 02:29:34;;;;;;;;;1.00;1.00;;;;;;;;5098079;27;45316;-73
2022/10/11 02:32:00;;;;;;;;;1.00;1.00;;;;;;;;5097589;27;46974;-73
2022/10/11 02:34:29;;;;;;;;;0.33;0.33;;;;;;;;5097701;27;45489;-73
2022/10/11 02:37:23;;;;;;;;;1.67;1.67;;;;;;;;5087556;27;45429;-73
2022/10/11 02:39:55;;;;;;;;;0.00;0.00;;;;;;;;5079843;27;45338;-72
2022/10/11 02:42:25;;;;;;;;;1.33;1.33;;;;;;;;5097811;27;45270;-73
2022/10/11 02:44:59;;;;;;;;;0.00;0.00;;;;;;;;5097864;27;45274;-72
2022/10/11 02:47:25;;;;;;;;;0.67;0.67;;;;;;;;5097945;27;45323;-72
2022/10/11 02:49:51;;;;;;;;;1.67;1.67;;;;;;;;5083003;27;46969;-73
2022/10/11 02:52:16;;;;;;;;;0.00;0.00;;;;;;;;5086256;27;46153;-73
2022/10/11 02:54:41;;;;;;;;;1.00;1.00;;;;;;;;5094680;27;45402;-73
2022/10/11 02:57:06;;;;;;;;;1.00;1.00;;;;;;;;5097663;27;45272;-73
2022/10/11 02:59:32;;;;;;;;;1.33;1.33;;;;;;;;5096451;27;45493;-72
2022/10/11 03:01:57;;;;;;;;;2.00;2.00;;;;;;;;5084156;27;47084;-73
2022/10/11 03:04:22;;;;;;;;;1.00;1.00;;;;;;;;5097051;27;45540;-73
2022/10/11 03:06:47;;;;;;;;;1.00;1.00;;;;;;;;5095773;27;45378;-73
2022/10/11 03:09:12;;;;;;;;;1.00;1.00;;;;;;;;5087237;27;45497;-73
2022/10/11 03:11:37;;;;;;;;;0.00;0.00;;;;;;;;5097310;27;46171;-72
2022/10/11 03:14:03;;;;;;;;;1.33;1.33;;;;;;;;5097364;27;45299;-72
2022/10/11 03:16:28;;;;;;;;;1.00;0.00;;;;;;;;5097467;27;45481;-73
2022/10/11 03:18:53;;;;;;;;;1.00;1.00;;;;;;;;5097164;27;45336;-73
2022/10/11 03:21:18;;;;;;;;;1.00;1.00;;;;;;;;5097085;27;46244;-72
2022/10/11 03:23:43;;;;;;;;;2.33;1.00;;;;;;;;5078502;27;46698;-73
2022/10/11 03:26:09;;;;;;;;;2.00;0.00;;;;;;;;5087105;27;45820;-73
2022/10/11 03:28:34;;;;;;;;;0.00;0.00;;;;;;;;5096961;27;45410;-73
2022/10/11 03:30:59;;;;;;;;;1.00;1.00;;;;;;;;5096960;27;45464;-73
2022/10/11 03:33:24;;;;;;;;;2.00;1.00;;;;;;;;5096721;27;45499;-73
2022/10/11 03:35:49;;;;;;;;;1.00;1.00;;;;;;;;5096001;27;45269;-73
2022/10/11 03:38:17;;;;;;;;;1.00;1.00;;;;;;;;5084394;27;45448;-73
2022/10/11 03:40:42;;;;;;;;;1.00;1.00;;;;;;;;5096668;27;46148;-73
2022/10/11 03:43:07;;;;;;;;;0.33;0.33;;;;;;;;5096600;27;45241;-73
2022/10/11 03:45:33;;;;;;;;;0.33;0.33;;;;;;;;5096919;27;45238;-72
2022/10/11 03:47:58;;;;;;;;;1.00;1.00;;;;;;;;5096425;27;45323;-73
2022/10/11 03:50:23;;;;;;;;;1.00;1.00;;;;;;;;5096745;27;46472;-73
2022/10/11 03:52:49;;;;;;;;;1.00;1.00;;;;;;;;5096535;27;45459;-73
2022/10/11 03:55:14;;;;;;;;;0.00;0.00;;;;;;;;5096536;27;45399;-73
2022/10/11 03:57:40;;;;;;;;;2.00;1.00;;;;;;;;5096847;27;45280;-73
2022/10/11 04:00:06;;;;;;;;;1.00;1.00;;;;;;;;5096131;27;47123;-73
2022/10/11 04:02:31;;;;;;;;;0.00;0.00;;;;;;;;5083717;27;45430;-73
2022/10/11 04:04:56;;;;;;;;;0.67;0.33;;;;;;;;5094191;27;45425;-73
2022/10/11 04:07:21;;;;;;;;;1.00;1.00;;;;;;;;5090070;27;45316;-73
2022/10/11 04:09:47;;;;;;;;;2.00;1.00;;;;;;;;5091416;27;46854;-73
2022/10/11 04:12:12;;;;;;;;;0.00;0.00;;;;;;;;5089069;27;45730;-73
2022/10/11 04:14:37;;;;;;;;;4.33;1.67;;;;;;;;5089689;27;45534;-73
2022/10/11 04:17:02;;;;;;;;;0.00;0.00;;;;;;;;5095829;27;45304;-73
2022/10/11 04:19:28;;;;;;;;;4.00;0.67;;;;;;;;5095290;27;45397;-73
2022/10/11 04:21:53;;;;;;;;;2.00;0.00;;;;;;;;5096037;27;45341;-73
2022/10/11 04:24:18;;;;;;;;;1.00;1.00;;;;;;;;5096537;27;45352;-73
2022/10/11 04:26:43;;;;;;;;;0.00;0.00;;;;;;;;5081644;27;45414;-73
2022/10/11 04:29:08;;;;;;;;;1.00;1.00;;;;;;;;5095965;27;45401;-73
2022/10/11 04:31:33;;;;;;;;;1.00;1.00;;;;;;;;5095746;27;45481;-73
2022/10/11 04:33:59;;;;;;;;;0.33;0.33;;;;;;;;5096114;27;45343;-73
2022/10/11 04:36:24;;;;;;;;;2.00;0.67;;;;;;;;5090192;27;45438;-73
2022/10/11 04:38:49;;;;;;;;;0.67;0.67;;;;;;;;5069972;27;47443;-73
2022/10/11 04:41:15;;;;;;;;;1.67;1.00;;;;;;;;5095517;27;45331;-73
2022/10/11 04:43:40;;;;;;;;;1.00;1.00;;;;;;;;5096162;27;45425;-73
2022/10/11 04:46:06;;;;;;;;;0.00;0.00;;;;;;;;5079857;27;45557;-74
2022/10/11 04:48:31;;;;;;;;;2.00;1.00;;;;;;;;5087510;27;46186;-73
2022/10/11 04:50:56;;;;;;;;;2.00;1.00;;;;;;;;5089916;27;45382;-73
2022/10/11 04:53:22;;;;;;;;;1.00;1.00;;;;;;;;5095965;27;45676;-73
2022/10/11 04:56:00;;;;;;;;;1.00;0.00;;;;;;;;5096021;27;45456;-73
2022/10/11 04:58:27;;;;;;;;;1.33;0.00;;;;;;;;5095382;27;47152;-73
2022/10/11 05:00:52;;;;;;;;;2.00;1.00;;;;;;;;5095331;27;45352;-73
2022/10/11 05:03:17;;;;;;;;;1.00;1.00;;;;;;;;5095339;27;45325;-73
2022/10/11 05:05:43;;;;;;;;;0.00;0.00;;;;;;;;5095778;27;45357;-73
2022/10/11 05:08:08;;;;;;;;;0.00;0.00;;;;;;;;5084276;27;45384;-73
2022/10/11 05:10:33;;;;;;;;;0.67;0.33;;;;;;;;5095609;27;45509;-73
2022/10/11 05:12:58;;;;;;;;;0.33;0.33;;;;;;;;5095836;27;45457;-73
2022/10/11 05:15:23;;;;;;;;;1.00;1.00;;;;;;;;5095248;27;45347;-73
2022/10/11 05:17:48;;;;;;;;;1.00;1.00;;;;;;;;5095226;27;46265;-74
2022/10/11 05:20:14;;;;;;;;;2.33;1.00;;;;;;;;5095281;27;45399;-74
2022/10/11 05:22:39;;;;;;;;;0.00;0.00;;;;;;;;5086065;27;45395;-73
2022/10/11 05:25:04;;;;;;;;;0.00;0.00;;;;;;;;5090614;27;45368;-73
2022/10/11 05:27:29;;;;;;;;;2.00;0.00;;;;;;;;5095257;27;47473;-73
2022/10/11 05:29:55;;;;;;;;;0.00;0.00;;;;;;;;5095086;27;45593;-74
2022/10/11 05:32:20;;;;;;;;;0.33;0.33;;;;;;;;5097975;27;45469;-73
2022/10/11 05:34:45;;;;;;;;;0.00;0.00;;;;;;;;5098914;27;45405;-73
2022/10/11 05:37:10;;;;;;;;;0.00;0.00;;;;;;;;5086200;27;46110;-73
2022/10/11 05:39:36;;;;;;;;;1.00;1.00;;;;;;;;5097645;27;45513;-73
2022/10/11 05:42:01;;;;;;;;;3.33;2.67;;;;;;;;5088078;27;45465;-75
2022/10/11 05:44:26;;;;;;;;;2.00;0.33;;;;;;;;5079605;27;45454;-76
2022/10/11 05:46:51;;;;;;;;;0.00;0.00;;;;;;;;5061559;27;46576;-74
2022/10/11 05:49:17;;;;;;;;;2.00;1.00;;;;;;;;5057922;27;45252;-73
2022/10/11 05:51:42;;;;;;;;;1.00;1.00;;;;;;;;5057457;27;45707;-74
2022/10/11 05:54:07;;;;;;;;;1.00;1.00;;;;;;;;5059445;28;45519;-74
2022/10/11 05:56:32;;;;;;;;;2.33;1.33;;;;;;;;5058613;27;46299;-84
2022/10/11 05:58:58;;;;;;;;;3.00;2.00;;;;;;;;5058025;28;45326;-80
2022/10/11 06:01:24;;;;;;;;;0.67;0.67;;;;;;;;5059780;27;45373;-75
2022/10/11 06:03:49;;;;;;;;;1.00;1.00;;;;;;;;5058103;27;46523;-71
2022/10/11 06:06:15;;;;;;;;;4.33;2.00;;;;;;;;5060366;27;45896;-70
2022/10/11 06:08:40;;;;;;;;;2.00;0.33;;;;;;;;5060334;27;45622;-70
2022/10/11 06:11:09;;;;;;;;;2.33;2.33;;;;;;;;5065333;27;45522;-69
2022/10/11 06:13:35;;;;;;;;;1.67;1.67;;;;;;;;5061050;28;45351;-70
2022/10/11 06:16:02;;;;;;;;;4.00;3.00;;;;;;;;5058518;27;45417;-71
2022/10/11 06:18:27;;;;;;;;;1.67;1.67;;;;;;;;5062039;27;45438;-74
2022/10/11 06:20:53;;;;;;;;;2.00;1.00;;;;;;;;5057442;27;45429;-73
2022/10/11 06:23:18;;;;;;;;;5.33;3.00;;;;;;;;5072040;27;45281;-72
2022/10/11 06:25:43;;;;;;;;;3.67;2.00;;;;;;;;5077565;27;46197;-71
2022/10/11 06:28:08;;;;;;;;;3.00;2.00;;;;;;;;5077072;27;45458;-75
2022/10/11 06:30:33;;;;;;;;;5.50;3.00;;;;;;;;5077635;27;45267;-73
2022/10/11 06:32:58;;;;;;;;;2.00;2.00;;;;;;;;5098274;27;45386;-74
2022/10/11 06:35:24;;;;;;;;;6.00;4.00;;;;;;;;5097882;27;46227;-76
2022/10/11 06:37:50;;;;;;;;;7.33;3.00;;;;;;;;5079792;27;46437;-74
2022/10/11 06:40:15;;;;;;;;;3.67;3.00;;;;;;;;5088009;27;45310;-75
2022/10/11 06:42:40;;;;;;;;;5.00;3.67;;;;;;;;5096298;27;45461;-74
2022/10/11 06:45:06;;;;;;;;;7.25;5.00;;;;;;;;5097618;27;46190;-74
2022/10/11 06:47:31;;;;;;;;;5.00;3.00;;;;;;;;5097663;27;45597;-75
2022/10/11 06:49:56;;;;;;;;;4.00;4.00;;;;;;;;5097883;27;45411;-75
2022/10/11 06:52:21;;;;;;;;;6.67;4.00;;;;;;;;5097606;27;45346;-74
2022/10/11 06:54:47;;;;;;;;;2.67;2.67;;;;;;;;5097314;27;45473;-74
2022/10/11 06:57:12;;;;;;;;;3.00;3.00;;;;;;;;5096990;27;45340;-74
2022/10/11 06:59:37;;;;;;;;;4.00;3.67;;;;;;;;5097455;27;45379;-75
2022/10/11 07:02:02;;;;;;;;;5.00;3.67;;;;;;;;5097687;27;45269;-75
2022/10/11 07:04:27;;;;;;;;;6.00;3.33;;;;;;;;5097124;27;46094;-75
2022/10/11 07:06:53;;;;;;;;;4.00;3.00;;;;;;;;5076585;27;45296;-75
2022/10/11 07:09:18;;;;;;;;;3.67;3.00;;;;;;;;5088510;27;45340;-75
2022/10/11 07:11:43;;;;;;;;;4.00;4.00;;;;;;;;5097076;27;45323;-75
2022/10/11 07:14:08;;;;;;;;;3.67;3.67;;;;;;;;5096886;27;46068;-75
2022/10/11 07:16:34;;;;;;;;;4.00;4.00;;;;;;;;5097162;27;45434;-74
2022/10/11 07:19:00;;;;;;;;;4.33;3.00;;;;;;;;5097518;27;45308;-75
2022/10/11 07:21:26;;;;;;;;;6.00;5.00;;;;;;;;5083383;27;45435;-75
2022/10/11 07:23:51;;;;;;;;;5.67;4.00;;;;;;;;5095964;27;46912;-74
2022/10/11 07:26:17;;;;;;;;;4.33;4.00;;;;;;;;5096919;27;45288;-75
2022/10/11 07:28:42;;;;;;;;;3.67;3.67;;;;;;;;5096912;27;45522;-74
2022/10/11 07:31:12;;;;;;;;;4.00;4.00;;;;;;;;5097079;27;45357;-74
2022/10/11 07:33:38;;;;;;;;;3.33;3.00;;;;;;;;5097045;27;45406;-75
2022/10/11 07:36:04;;;;;;;;;3.50;3.00;;;;;;;;5093468;27;45349;-75
2022/10/11 07:38:29;;;;;;;;;3.00;3.00;;;;;;;;5086362;27;45303;-75
2022/10/11 07:40:54;;;;;;;;;2.25;2.25;;;;;;;;5096683;27;45336;-74
2022/10/11 07:43:19;;;;;;;;;3.33;3.00;;;;;;;;5096636;27;45380;-74
2022/10/11 07:45:47;;;;;;;;;4.00;4.00;;;;;;;;5096924;27;45414;-75
2022/10/11 07:48:12;;;;;;;;;5.00;4.00;;;;;;;;5090798;27;45300;-74
2022/10/11 07:50:37;;;;;;;;;5.00;4.00;;;;;;;;5088168;27;45336;-75
2022/10/11 07:53:03;;;;;;;;;5.00;4.00;;;;;;;;5096475;27;45404;-75
2022/10/11 07:55:29;;;;;;;;;4.00;2.67;;;;;;;;5096015;27;45364;-75
2022/10/11 07:57:54;;;;;;;;;5.00;5.00;;;;;;;;5096693;27;45252;-74
2022/10/11 08:00:20;;;;;;;;;5.00;3.00;;;;;;;;5096657;27;45182;-75
2022/10/11 08:02:45;;;;;;;;;6.00;5.00;;;;;;;;5096119;27;46164;-74
2022/10/11 08:05:10;;;;;;;;;6.00;4.00;;;;;;;;5096298;27;45301;-74
2022/10/11 08:07:36;;;;;;;;;4.00;4.00;;;;;;;;5088357;27;45505;-75
2022/10/11 08:10:01;;;;;;;;;2.00;2.00;;;;;;;;5093023;27;45478;-75
2022/10/11 08:12:26;;;;;;;;;2.33;2.33;;;;;;;;5096167;27;45778;-74
2022/10/11 08:14:53;;;;;;;;;3.00;2.00;;;;;;;;5096293;27;45347;-73
2022/10/11 08:17:18;;;;;;;;;3.00;3.00;;;;;;;;5096288;27;45517;-75
2022/10/11 08:19:44;;;;;;;;;3.33;3.00;;;;;;;;5096369;27;45391;-74
2022/10/11 08:22:09;;;;;;;;;4.00;4.00;;;;;;;;5095847;27;47010;-75
2022/10/11 08:24:34;;;;;;;;;3.00;2.33;;;;;;;;5095633;27;45439;-75
2022/10/11 08:26:59;;;;;;;;;3.00;3.00;;;;;;;;5093458;27;45424;-74
2022/10/11 08:29:24;;;;;;;;;3.00;3.00;;;;;;;;5084926;27;45597;-74
2022/10/11 08:31:50;;;;;;;;;4.67;4.33;;;;;;;;5095824;27;46137;-74
2022/10/11 08:34:15;;;;;;;;;3.00;3.00;;;;;;;;5095883;27;45422;-74
2022/10/11 08:36:40;;;;;;;;;3.00;3.00;;;;;;;;5088044;27;45463;-75
2022/10/11 08:39:05;;;;;;;;;4.00;4.00;;;;;;;;5090116;27;45492;-74
2022/10/11 08:41:48;;;;;;;;;4.00;2.00;;;;;;;;5095734;27;46154;-75
2022/10/11 08:44:13;;;;;;;;;3.67;3.33;;;;;;;;5095863;27;45331;-74
2022/10/11 08:46:41;;;;;;;;;2.00;2.00;;;;;;;;5096017;27;45873;-75
2022/10/11 08:49:08;;;;;;;;;4.33;4.00;;;;;;;;5096245;27;45507;-75
2022/10/11 08:51:39;;;;;;;;;3.00;3.00;;;;;;;;5095647;27;46300;-75
2022/10/11 08:54:17;;;;;;;;;5.00;3.00;;;;;;;;5095425;27;45465;-74
2022/10/11 08:56:43;;;;;;;;;3.00;3.00;;;;;;;;5095587;27;45322;-75
2022/10/11 08:59:12;;;;;;;;;4.33;4.33;;;;;;;;5095756;27;45451;-73
2022/10/11 09:01:40;;;;;;;;;2.67;2.00;;;;;;;;5095337;27;45529;-75
2022/10/11 09:04:10;;;;;;;;;5.67;3.00;;;;;;;;5095440;27;45346;-74
2022/10/11 09:06:42;;;;;;;;;5.00;3.00;;;;;;;;5082331;27;45272;-74
2022/10/11 09:09:13;;;;;;;;;6.00;4.67;;;;;;;;5088890;27;45429;-74
2022/10/11 09:11:50;;;;;;;;;4.00;2.75;;;;;;;;5099205;27;46253;-74
2022/10/11 09:14:30;;;;;;;;;3.33;3.00;;;;;;;;5089050;27;45399;-76
2022/10/11 09:17:07;;;;;;;;;3.00;3.00;;;;;;;;5097571;27;45352;-75
2022/10/11 09:19:51;;;;;;;;;5.00;3.00;;;;;;;;5099180;27;45424;-75
2022/10/11 09:22:36;;;;;;;;;5.33;3.33;;;;;;;;5064089;28;46171;-75
2022/10/11 09:25:15;;;;;;;;;3.00;3.00;;;;;;;;5093682;27;45415;-74
2022/10/11 09:27:49;;;;;;;;;5.67;2.00;;;;;;;;5080932;27;45443;-74
2022/10/11 09:30:16;;;;;;;;;4.67;4.33;;;;;;;;5098829;27;45332;-75
2022/10/11 09:32:44;;;;;;;;;3.33;3.00;;;;;;;;5080265;27;46301;-75
2022/10/11 09:35:14;;;;;;;;;4.33;4.33;;;;;;;;5088082;27;45393;-75
2022/10/11 09:37:51;;;;;;;;;5.67;4.00;;;;;;;;5085206;27;45470;-76
2022/10/11 09:40:26;;;;;;;;;5.33;4.00;;;;;;;;5098767;27;45363;-75
2022/10/11 09:42:51;;;;;;;;;3.00;3.00;;;;;;;;5098422;27;47495;-75
2022/10/11 09:45:18;;;;;;;;;5.00;4.00;;;;;;;;5098471;27;45520;-74
2022/10/11 09:47:43;;;;;;;;;2.67;2.67;;;;;;;;5098799;27;45329;-75
2022/10/11 09:50:19;;;;;;;;;5.00;3.00;;;;;;;;5098288;27;45586;-75
2022/10/11 09:52:50;;;;;;;;;6.00;3.00;;;;;;;;5098326;27;46128;-75
2022/10/11 09:55:32;;;;;;;;;3.00;3.00;;;;;;;;5098664;27;45493;-75
2022/10/11 09:57:57;;;;;;;;;4.67;3.00;;;;;;;;5098183;27;45462;-74
2022/10/11 10:00:24;;;;;;;;;2.67;2.67;;;;;;;;5098447;27;45301;-75
2022/10/11 10:02:53;;;;;;;;;3.00;3.00;;;;;;;;5079909;27;45436;-75
2022/10/11 10:05:18;;;;;;;;;5.33;3.00;;;;;;;;5070208;27;45479;-74
2022/10/11 10:07:56;;;;;;;;;3.00;2.00;;;;;;;;5088923;27;45281;-74
2022/10/11 10:10:25;;;;;;;;;4.33;3.00;;;;;;;;5070106;27;45469;-74
2022/10/11 10:12:55;;;;;;;;;5.67;4.00;;;;;;;;5098094;27;47176;-75
2022/10/11 10:15:20;;;;;;;;;3.33;3.00;;;;;;;;5098180;27;45309;-74
2022/10/11 10:17:50;;;;;;;;;3.00;3.00;;;;;;;;5096677;27;45358;-75
2022/10/11 10:20:23;;;;;;;;;3.00;3.00;;;;;;;;5097888;27;45350;-74
2022/10/11 10:22:48;;;;;;;;;3.33;3.00;;;;;;;;5098019;27;45362;-75
2022/10/11 10:25:21;;;;;;;;;2.67;2.67;;;;;;;;5097603;27;45357;-75
2022/10/11 10:27:55;;;;;;;;;4.00;3.00;;;;;;;;5098074;27;45417;-75
2022/10/11 10:30:20;;;;;;;;;6.50;4.50;;;;;;;;5098076;27;45264;-75
2022/10/11 10:32:45;;;;;;;;;4.00;3.00;;;;;;;;5097611;27;46061;-74
2022/10/11 10:35:13;;;;;;;;;5.00;3.00;;;;;;;;5097797;27;45363;-75
2022/10/11 10:37:46;;;;;;;;;4.50;3.50;;;;;;;;5084307;27;45496;-74
2022/10/11 10:40:20;;;;;;;;;4.00;4.00;;;;;;;;5098048;27;45268;-74
2022/10/11 10:42:45;;;;;;;;;1.67;1.67;;;;;;;;5097496;27;45315;-75
2022/10/11 10:45:15;;;;;;;;;4.00;4.00;;;;;;;;5079223;27;45283;-75
2022/10/11 10:47:59;;;;;;;;;3.33;3.00;;;;;;;;5097982;27;45435;-75
2022/10/11 10:50:26;;;;;;;;;3.00;2.00;;;;;;;;5097846;27;45452;-75
2022/10/11 10:53:14;;;;;;;;;4.00;2.33;;;;;;;;5097507;27;46332;-74
2022/10/11 10:56:06;;;;;;;;;3.00;3.00;;;;;;;;5086513;27;45340;-75
2022/10/11 10:58:37;;;;;;;;;3.33;3.00;;;;;;;;5014148;28;45391;-75
2022/10/11 11:01:09;;;;;;;;;4.67;2.00;;;;;;;;5014406;28;45638;-75
2022/10/11 11:03:38;;;;;;;;;4.00;4.00;;;;;;;;5007803;28;46479;-75
2022/10/11 11:06:09;;;;;;;;;4.00;4.00;;;;;;;;5006886;28;45426;-75
2022/10/11 11:08:53;;;;;;;;;2.33;2.00;;;;;;;;4999997;28;45543;-75
2022/10/11 11:11:38;;;;;;;;;2.33;2.00;;;;;;;;5014211;28;45284;-75
2022/10/11 11:14:18;;;;;;;;;2.67;2.33;;;;;;;;5002504;28;46590;-76
2022/10/11 11:17:07;;;;;;;;;2.00;1.33;;;;;;;;5013457;28;45396;-75
2022/10/11 11:19:38;;;;;;;;;4.00;2.00;;;;;;;;5003540;28;45494;-74
2022/10/11 11:22:12;;;;;;;;;2.67;2.67;;;;;;;;5012792;28;45581;-75
2022/10/11 11:24:47;;;;;;;;;6.33;3.67;;;;;;;;5013778;28;46108;-76
2022/10/11 11:27:19;;;;;;;;;3.00;2.00;;;;;;;;4999935;28;45523;-74
2022/10/11 11:29:50;;;;;;;;;4.00;3.00;;;;;;;;5013613;28;45425;-74
2022/10/11 11:32:34;;;;;;;;;3.33;2.00;;;;;;;;5013055;28;45470;-75
2022/10/11 11:35:02;;;;;;;;;2.00;2.00;;;;;;;;5032143;27;46387;-75
2022/10/11 11:37:33;;;;;;;;;2.33;1.00;;;;;;;;5082889;27;45547;-75
2022/10/11 11:40:05;;;;;;;;;2.00;2.00;;;;;;;;5096985;27;45341;-75
2022/10/11 11:42:38;;;;;;;;;2.33;2.00;;;;;;;;5096718;27;45496;-75
2022/10/11 11:45:23;;;;;;;;;4.33;2.67;;;;;;;;5096674;27;46171;-74
2022/10/11 11:48:12;;;;;;;;;1.00;1.00;;;;;;;;5095421;27;45222;-74
2022/10/11 11:50:39;;;;;;;;;1.00;1.00;;;;;;;;5085743;27;45363;-75
2022/10/11 11:53:13;;;;;;;;;2.00;2.00;;;;;;;;5082203;27;45470;-75
2022/10/11 11:55:52;;;;;;;;;3.33;3.00;;;;;;;;5096574;27;47350;-74
2022/10/11 11:58:30;;;;;;;;;2.00;2.00;;;;;;;;5096320;27;45438;-75
2022/10/11 12:01:12;;;;;;;;;2.67;2.67;;;;;;;;5096296;27;45295;-75
2022/10/11 12:03:42;;;;;;;;;2.33;2.33;;;;;;;;5096558;27;45294;-75
2022/10/11 12:06:13;;;;;;;;;3.00;2.67;;;;;;;;5083268;27;46142;-75
2022/10/11 12:08:41;;;;;;;;;4.00;3.00;;;;;;;;5084628;27;45317;-76
2022/10/11 12:11:17;;;;;;;;;3.00;2.00;;;;;;;;5096399;27;45363;-74
2022/10/11 12:13:43;;;;;;;;;2.00;2.00;;;;;;;;5090727;27;45467;-75
2022/10/11 12:16:11;;;;;;;;;3.33;2.00;;;;;;;;5087186;27;46307;-74
2022/10/11 12:18:56;;;;;;;;;3.00;3.00;;;;;;;;5095819;27;45423;-74
2022/10/11 12:21:32;;;;;;;;;4.67;3.00;;;;;;;;5081695;27;45352;-75
2022/10/11 12:24:17;;;;;;;;;2.67;1.33;;;;;;;;5096069;27;45430;-75
2022/10/11 12:26:44;;;;;;;;;1.33;1.33;;;;;;;;5081194;27;46324;-74
2022/10/11 12:29:15;;;;;;;;;4.00;2.00;;;;;;;;5096270;27;45291;-74
2022/10/11 12:31:41;;;;;;;;;3.33;2.00;;;;;;;;5096194;27;45327;-75
2022/10/11 12:34:09;;;;;;;;;2.00;2.00;;;;;;;;5093335;27;45418;-75
2022/10/11 12:36:35;;;;;;;;;3.00;3.00;;;;;;;;5063634;27;46132;-74
2022/10/11 12:39:19;;;;;;;;;2.00;2.00;;;;;;;;5089853;27;45386;-74
2022/10/11 12:41:50;;;;;;;;;2.33;2.00;;;;;;;;5071191;27;45391;-75
2022/10/11 12:44:25;;;;;;;;;1.00;1.00;;;;;;;;5095608;27;45556;-74
2022/10/11 12:46:53;;;;;;;;;3.00;3.00;;;;;;;;5095776;27;45493;-75
2022/10/11 12:49:36;;;;;;;;;2.67;2.67;;;;;;;;5095566;27;45581;-73
2022/10/11 12:52:17;;;;;;;;;4.33;2.67;;;;;;;;5086725;27;45435;-73
2022/10/11 12:55:00;;;;;;;;;4.00;1.00;;;;;;;;5092612;27;45427;-75
2022/10/11 12:57:31;;;;;;;;;2.00;2.00;;;;;;;;5095728;27;46319;-75
2022/10/11 13:00:06;;;;;;;;;2.33;2.00;;;;;;;;5080846;27;45487;-75
2022/10/11 13:02:39;;;;;;;;;1.33;1.00;;;;;;;;5095544;27;45375;-75
2022/10/11 13:05:06;;;;;;;;;3.67;2.00;;;;;;;;5095720;27;45309;-76
2022/10/11 13:07:33;;;;;;;;;2.00;2.00;;;;;;;;5087623;27;46462;-75
2022/10/11 13:09:58;;;;;;;;;2.00;2.00;;;;;;;;5092111;27;45349;-76
2022/10/11 13:12:25;;;;;;;;;1.00;1.00;;;;;;;;5086824;27;45418;-75
2022/10/11 13:15:03;;;;;;;;;1.33;1.33;;;;;;;;5090030;27;45314;-75
2022/10/11 13:17:30;;;;;;;;;2.67;1.00;;;;;;;;5095422;27;47152;-75
2022/10/11 13:20:00;;;;;;;;;0.00;0.00;;;;;;;;5095026;27;45438;-73
2022/10/11 13:22:26;;;;;;;;;1.00;1.00;;;;;;;;5095679;27;45354;-75
2022/10/11 13:24:54;;;;;;;;;1.33;1.33;;;;;;;;5095355;27;45407;-76
2022/10/11 13:27:20;;;;;;;;;2.00;2.00;;;;;;;;5094876;27;47209;-74
2022/10/11 13:29:46;;;;;;;;;1.67;1.00;;;;;;;;5082301;27;45344;-75
2022/10/11 13:32:17;;;;;;;;;1.67;1.67;;;;;;;;5092999;27;45499;-76
2022/10/11 13:34:44;;;;;;;;;2.00;2.00;;;;;;;;5067708;27;45334;-74
2022/10/11 13:37:15;;;;;;;;;1.67;1.67;;;;;;;;5082664;27;46132;-75
2022/10/11 13:39:40;;;;;;;;;3.00;1.67;;;;;;;;5076166;27;45454;-76
2022/10/11 13:42:10;;;;;;;;;1.67;1.00;;;;;;;;5094912;27;45434;-75
2022/10/11 13:44:37;;;;;;;;;2.67;1.00;;;;;;;;5095063;27;45330;-75
2022/10/11 13:47:02;;;;;;;;;2.67;2.67;;;;;;;;5085000;27;46169;-76
2022/10/11 13:49:36;;;;;;;;;3.00;3.00;;;;;;;;5072304;27;45494;-76
2022/10/11 13:52:03;;;;;;;;;1.00;1.00;;;;;;;;5095982;27;45387;-75
2022/10/11 13:54:47;;;;;;;;;3.33;2.67;;;;;;;;5098539;27;45447;-75
2022/10/11 13:57:13;;;;;;;;;1.00;1.00;;;;;;;;5079638;27;48127;-76
2022/10/11 13:59:41;;;;;;;;;2.00;2.00;;;;;;;;5098180;27;45481;-76
2022/10/11 14:02:15;;;;;;;;;4.00;3.00;;;;;;;;5098589;27;45426;-75
2022/10/11 14:04:40;;;;;;;;;3.67;2.00;;;;;;;;5098382;27;45370;-75
2022/10/11 14:07:05;;;;;;;;;1.67;1.00;;;;;;;;5094339;27;46297;-76
2022/10/11 14:09:32;;;;;;;;;1.00;1.00;;;;;;;;5091161;27;45365;-76
2022/10/11 14:12:16;;;;;;;;;1.00;1.00;;;;;;;;5097905;27;45378;-75
2022/10/11 14:14:42;;;;;;;;;1.00;1.00;;;;;;;;5098460;27;45382;-75
2022/10/11 14:17:13;;;;;;;;;3.00;2.00;;;;;;;;5097958;27;47102;-75
2022/10/11 14:19:38;;;;;;;;;1.00;1.00;;;;;;;;5098465;27;45368;-75
2022/10/11 14:22:04;;;;;;;;;1.00;1.00;;;;;;;;5098058;27;45430;-76
2022/10/11 14:24:29;;;;;;;;;1.33;1.33;;;;;;;;5087731;27;45323;-76
2022/10/11 14:26:56;;;;;;;;;2.00;2.00;;;;;;;;5093894;27;46132;-75
2022/10/11 14:29:21;;;;;;;;;2.00;1.00;;;;;;;;5097953;27;45394;-76
2022/10/11 14:31:48;;;;;;;;;2.00;1.00;;;;;;;;5098367;27;45451;-75
2022/10/11 14:34:16;;;;;;;;;2.00;2.00;;;;;;;;5098264;27;45379;-76
2022/10/11 14:36:41;;;;;;;;;1.67;1.00;;;;;;;;5089525;27;46268;-76
2022/10/11 14:39:12;;;;;;;;;1.33;1.33;;;;;;;;5092445;27;45515;-75
2022/10/11 14:41:37;;;;;;;;;1.00;0.00;;;;;;;;5097276;27;45390;-75
2022/10/11 14:44:02;;;;;;;;;1.67;1.33;;;;;;;;5097900;27;45340;-76
2022/10/11 14:46:28;;;;;;;;;2.00;1.00;;;;;;;;5097700;27;45423;-75
2022/10/11 14:48:54;;;;;;;;;1.00;1.00;;;;;;;;5097743;27;45359;-75
2022/10/11 14:51:21;;;;;;;;;2.00;2.00;;;;;;;;5097553;27;45862;-75